METAR Data
IDs: Format: Raw Decoded Include TAF

Data at: 1202 UTC 26 Feb 2021

LFST 261130Z AUTO 03004KT 350V050 CAVOK 14/06 Q1030 NOSIG